createdAt,value
2019-05-02T00:00:12.614Z,8.30
2019-05-02T00:02:42.245Z,8.30
2019-05-02T00:05:13.046Z,8.30
2019-05-02T00:07:43.582Z,8.20
2019-05-02T00:10:19.905Z,8.20
2019-05-02T00:12:47.118Z,8.20
2019-05-02T00:15:17.721Z,8.20
2019-05-02T00:17:46.433Z,8.20
2019-05-02T00:20:21.018Z,8.30
2019-05-02T00:22:48.130Z,8.30
2019-05-02T00:25:17.206Z,8.30
2019-05-02T00:27:46.025Z,8.30
2019-05-02T00:30:36.094Z,8.40
2019-05-02T00:33:04.767Z,8.40
2019-05-02T00:35:33.195Z,8.30
2019-05-02T00:38:02.457Z,8.30
2019-05-02T00:40:31.227Z,8.30
2019-05-02T00:42:59.753Z,8.30
2019-05-02T00:45:28.265Z,8.30
2019-05-02T00:48:04.132Z,8.30
2019-05-02T00:50:34.193Z,8.30
2019-05-02T00:53:02.626Z,8.30
2019-05-02T00:55:33.784Z,8.30
2019-05-02T00:58:01.265Z,8.30
2019-05-02T01:00:31.367Z,8.30
2019-05-02T01:03:01.783Z,8.30
2019-05-02T01:05:33.709Z,8.20
2019-05-02T01:08:01.405Z,8.20
2019-05-02T01:10:30.993Z,8.20
2019-05-02T01:13:00.197Z,8.10
2019-05-02T01:15:28.616Z,8.00
2019-05-02T01:18:00.989Z,8.10
2019-05-02T01:20:28.105Z,8.10
2019-05-02T01:22:57.481Z,8.10
2019-05-02T01:25:25.915Z,8.00
2019-05-02T01:28:17.641Z,7.90
2019-05-02T01:30:44.426Z,8.00
2019-05-02T01:33:14.502Z,8.00
2019-05-02T01:35:50.269Z,8.00
2019-05-02T01:38:31.986Z,8.00
2019-05-02T01:40:59.302Z,8.00
2019-05-02T01:43:31.728Z,8.00
2019-05-02T01:46:00.432Z,8.10
2019-05-02T01:48:29.138Z,8.10
2019-05-02T01:50:57.575Z,8.20
2019-05-02T01:53:33.641Z,8.30
2019-05-02T01:55:59.500Z,8.30
2019-05-02T01:58:28.227Z,8.30
2019-05-02T02:00:56.661Z,8.30
2019-05-02T02:03:25.098Z,8.30
2019-05-02T02:05:56.506Z,8.40
2019-05-02T02:08:27.208Z,8.30
2019-05-02T02:10:58.194Z,8.30
2019-05-02T02:13:31.369Z,8.30
2019-05-02T02:16:00.234Z,8.40
2019-05-02T02:18:29.428Z,8.40
2019-05-02T02:20:59.542Z,8.40
2019-05-02T02:23:38.295Z,8.40
2019-05-02T02:26:12.064Z,8.50
2019-05-02T02:28:38.534Z,8.50
2019-05-02T02:31:07.937Z,8.50
2019-05-02T02:33:41.221Z,8.50
2019-05-02T02:36:07.102Z,8.60
2019-05-02T02:38:35.765Z,8.70
2019-05-02T02:41:12.423Z,8.60
2019-05-02T02:43:35.187Z,8.60
2019-05-02T02:46:11.908Z,8.50
2019-05-02T02:48:42.567Z,8.60
2019-05-02T02:51:22.559Z,8.60
2019-05-02T02:53:40.991Z,8.60
2019-05-02T02:56:10.000Z,8.70
2019-05-02T02:58:45.717Z,8.70
2019-05-02T03:01:09.025Z,8.50
2019-05-02T03:03:37.467Z,8.50
2019-05-02T03:06:07.964Z,8.50
2019-05-02T03:08:46.075Z,8.60
2019-05-02T03:11:09.732Z,8.60
2019-05-02T03:13:52.523Z,8.60
2019-05-02T03:16:16.953Z,8.60
2019-05-02T03:18:45.666Z,8.70
2019-05-02T03:21:20.829Z,8.70
2019-05-02T03:23:44.799Z,8.70
2019-05-02T03:26:14.876Z,8.70
2019-05-02T03:28:43.768Z,8.70
2019-05-02T03:31:24.018Z,8.70
2019-05-02T03:33:54.197Z,8.60
2019-05-02T03:36:28.712Z,8.70
2019-05-02T03:38:43.420Z,8.80
2019-05-02T03:41:13.347Z,8.80
2019-05-02T03:43:43.177Z,8.70
2019-05-02T03:46:13.515Z,8.70
2019-05-02T03:48:41.952Z,8.70
2019-05-02T03:51:19.657Z,8.70
2019-05-02T03:53:41.282Z,8.70
2019-05-02T03:56:12.086Z,8.80
2019-05-02T03:58:40.069Z,8.80
2019-05-02T04:01:08.518Z,8.80
2019-05-02T04:03:40.789Z,8.80
2019-05-02T04:06:13.661Z,8.80
2019-05-02T04:08:39.306Z,8.80
2019-05-02T04:11:16.313Z,8.90
2019-05-02T04:13:44.922Z,8.80
2019-05-02T04:16:15.411Z,8.80
2019-05-02T04:18:54.514Z,8.80
2019-05-02T04:21:14.370Z,8.90
2019-05-02T04:23:42.817Z,8.90
2019-05-02T04:26:13.235Z,8.90
2019-05-02T04:28:45.487Z,8.90
2019-05-02T04:31:14.318Z,8.90
2019-05-02T04:33:42.759Z,8.90
2019-05-02T04:36:15.292Z,8.90
2019-05-02T04:38:47.455Z,8.90
2019-05-02T04:41:11.649Z,9.00
2019-05-02T04:43:54.641Z,9.00
2019-05-02T04:46:22.183Z,8.90
2019-05-02T04:48:48.600Z,9.00
2019-05-02T04:51:16.488Z,8.90
2019-05-02T04:53:45.444Z,9.00
2019-05-02T04:56:12.586Z,9.00
2019-05-02T04:58:41.090Z,9.10
2019-05-02T05:01:10.173Z,9.10
2019-05-02T05:03:38.942Z,9.10
2019-05-02T05:06:12.052Z,9.10
2019-05-02T05:08:38.775Z,9.00
2019-05-02T05:11:08.061Z,9.00
2019-05-02T05:13:37.335Z,8.90
2019-05-02T05:16:08.608Z,8.90
2019-05-02T05:18:37.829Z,8.90
2019-05-02T05:21:28.185Z,9.00
2019-05-02T05:24:01.398Z,9.10
2019-05-02T05:26:29.365Z,9.00
2019-05-02T05:28:58.367Z,9.00
2019-05-02T05:31:29.133Z,9.00
2019-05-02T05:33:57.945Z,9.10
2019-05-02T05:36:32.481Z,9.10
2019-05-02T05:38:58.428Z,9.30
2019-05-02T05:41:27.920Z,9.40
2019-05-02T05:43:57.372Z,9.70
2019-05-02T05:46:28.010Z,10.00
2019-05-02T05:48:58.203Z,9.80
2019-05-02T05:51:27.628Z,9.40
2019-05-02T05:54:02.683Z,9.30
2019-05-02T05:56:28.078Z,9.20
2019-05-02T05:58:59.269Z,9.10
2019-05-02T06:01:33.753Z,9.20
2019-05-02T06:03:58.493Z,9.10
2019-05-02T06:06:27.484Z,9.10
2019-05-02T06:08:56.367Z,9.10
2019-05-02T06:11:24.818Z,9.10
2019-05-02T06:13:53.248Z,9.20
2019-05-02T06:16:21.684Z,9.20
2019-05-02T06:18:50.255Z,9.30
2019-05-02T06:21:18.694Z,9.30
2019-05-02T06:23:47.201Z,9.30
2019-05-02T06:26:15.913Z,9.20
2019-05-02T06:28:44.565Z,9.30
2019-05-02T06:31:13.072Z,9.30
2019-05-02T06:33:41.784Z,9.20
2019-05-02T06:36:10.349Z,9.20
2019-05-02T06:38:38.779Z,9.20
2019-05-02T06:41:07.213Z,9.30
2019-05-02T06:43:35.718Z,9.30
2019-05-02T06:46:15.607Z,9.30
2019-05-02T06:48:34.585Z,9.30
2019-05-02T06:51:03.271Z,9.30
2019-05-02T06:53:34.726Z,9.40
2019-05-02T06:56:01.878Z,9.40
2019-05-02T06:58:30.297Z,9.30
2019-05-02T07:00:59.152Z,9.30
2019-05-02T07:03:27.824Z,9.30
2019-05-02T07:05:58.820Z,9.20
2019-05-02T07:08:26.681Z,9.30
2019-05-02T07:11:01.179Z,9.30
2019-05-02T07:13:26.088Z,9.30
2019-05-02T07:15:58.811Z,9.30
2019-05-02T07:18:29.173Z,9.40
2019-05-02T07:20:57.619Z,9.40
2019-05-02T07:23:26.214Z,9.40
2019-05-02T07:26:20.889Z,9.40
2019-05-02T07:28:47.485Z,9.40
2019-05-02T07:31:15.819Z,9.40
2019-05-02T07:33:44.241Z,9.40
2019-05-02T07:36:12.694Z,9.40
2019-05-02T07:38:41.181Z,9.40
2019-05-02T07:41:09.996Z,9.30
2019-05-02T07:43:40.746Z,9.40
2019-05-02T07:46:09.193Z,9.40
2019-05-02T07:48:37.633Z,9.30
2019-05-02T07:51:06.063Z,9.30
2019-05-02T07:53:34.670Z,9.30
2019-05-02T07:56:03.189Z,9.40
2019-05-02T07:58:31.689Z,9.30
2019-05-02T08:01:00.377Z,9.40
2019-05-02T08:03:29.504Z,9.30
2019-05-02T08:06:00.033Z,9.20
2019-05-02T08:08:29.799Z,9.10
2019-05-02T08:11:01.901Z,9.10
2019-05-02T08:13:31.319Z,9.10
2019-05-02T08:15:58.981Z,9.10
2019-05-02T08:18:30.391Z,9.00
2019-05-02T08:20:57.848Z,9.00
2019-05-02T08:23:27.879Z,9.10
2019-05-02T08:25:56.671Z,9.10
2019-05-02T08:28:26.741Z,9.10
2019-05-02T08:30:56.842Z,9.10
2019-05-02T08:33:29.114Z,9.10
2019-05-02T08:35:56.529Z,9.10
2019-05-02T08:38:24.957Z,9.10
2019-05-02T08:40:53.399Z,9.10
2019-05-02T08:43:21.896Z,9.10
2019-05-02T08:45:50.330Z,9.00
2019-05-02T08:48:18.758Z,8.90
2019-05-02T08:50:47.193Z,8.90
2019-05-02T08:53:19.655Z,9.00
2019-05-02T08:55:47.180Z,9.00
2019-05-02T08:58:15.884Z,9.00
2019-05-02T09:00:47.182Z,9.00
2019-05-02T09:03:16.981Z,9.00
2019-05-02T09:05:46.200Z,9.20
2019-05-02T09:08:16.605Z,9.00
2019-05-02T09:10:46.373Z,9.10
2019-05-02T09:13:18.017Z,9.00
2019-05-02T09:15:49.661Z,9.00
2019-05-02T09:18:15.981Z,9.00
2019-05-02T09:20:47.020Z,9.00
2019-05-02T09:23:14.561Z,9.00
2019-05-02T09:25:43.140Z,9.00
2019-05-02T09:28:12.449Z,9.00
2019-05-02T09:30:41.936Z,9.00
2019-05-02T09:33:11.736Z,9.10
2019-05-02T09:35:42.214Z,9.00
2019-05-02T09:38:12.961Z,9.00
2019-05-02T09:40:42.620Z,9.00
2019-05-02T09:43:12.238Z,9.00
2019-05-02T09:45:43.651Z,9.00
2019-05-02T09:48:12.620Z,9.00
2019-05-02T09:50:42.129Z,9.00
2019-05-02T09:53:20.919Z,9.00
2019-05-02T09:55:50.400Z,9.00
2019-05-02T09:58:19.053Z,9.00
2019-05-02T10:00:57.457Z,9.10
2019-05-02T10:03:25.926Z,9.10
2019-05-02T10:05:54.363Z,9.10
2019-05-02T10:08:23.074Z,9.20
2019-05-02T10:10:52.302Z,9.20
2019-05-02T10:13:22.724Z,9.20
2019-05-02T10:15:52.780Z,9.20
2019-05-02T10:18:28.639Z,9.20
2019-05-02T10:20:52.408Z,9.20
2019-05-02T10:23:23.210Z,9.30
2019-05-02T10:25:52.079Z,9.40
2019-05-02T10:28:22.965Z,9.30
2019-05-02T10:30:55.253Z,9.20
2019-05-02T10:33:23.353Z,9.20
2019-05-02T10:35:52.484Z,9.30
2019-05-02T10:38:22.707Z,9.40
2019-05-02T10:40:54.751Z,9.40
2019-05-02T10:43:22.273Z,9.50
2019-05-02T10:45:56.314Z,9.60
2019-05-02T10:48:28.035Z,9.70
2019-05-02T10:50:54.698Z,9.70
2019-05-02T10:53:23.137Z,9.70
2019-05-02T10:55:52.389Z,9.70
2019-05-02T10:58:25.817Z,9.80
2019-05-02T11:00:52.321Z,9.80
2019-05-02T11:03:25.890Z,9.80
2019-05-02T11:06:07.464Z,9.80
2019-05-02T11:08:36.702Z,9.90
2019-05-02T11:11:05.925Z,10.00
2019-05-02T11:13:53.404Z,10.00
2019-05-02T11:16:23.307Z,10.00
2019-05-02T11:19:02.657Z,10.00
2019-05-02T11:21:32.231Z,10.00
2019-05-02T11:24:02.417Z,10.00
2019-05-02T11:26:32.595Z,10.10
2019-05-02T11:29:03.086Z,10.10
2019-05-02T11:31:32.435Z,10.20
2019-05-02T11:34:01.807Z,10.20
2019-05-02T11:36:32.632Z,10.20
2019-05-02T11:39:09.772Z,10.30
2019-05-02T11:41:31.821Z,10.40
2019-05-02T11:44:00.445Z,10.50
2019-05-02T11:46:28.874Z,10.50
2019-05-02T11:48:58.619Z,10.50
2019-05-02T11:51:27.421Z,10.50
2019-05-02T11:53:59.229Z,10.50
2019-05-02T11:56:26.158Z,10.50
2019-05-02T11:58:54.640Z,10.60
2019-05-02T12:01:35.544Z,10.70
2019-05-02T12:03:53.286Z,10.70
2019-05-02T12:06:22.611Z,10.90
2019-05-02T12:08:52.678Z,10.90
2019-05-02T12:11:22.849Z,11.00
2019-05-02T12:13:52.752Z,11.00
2019-05-02T12:16:22.945Z,11.00
2019-05-02T12:18:53.807Z,11.10
2019-05-02T12:21:22.865Z,11.00
2019-05-02T12:23:52.678Z,11.10
2019-05-02T12:26:22.229Z,11.20
2019-05-02T12:28:52.685Z,11.30
2019-05-02T12:31:28.891Z,11.30
2019-05-02T12:33:58.497Z,11.40
2019-05-02T12:36:27.011Z,11.40
2019-05-02T12:38:55.512Z,11.30
2019-05-02T12:41:25.303Z,11.50
2019-05-02T12:43:54.121Z,11.50
2019-05-02T12:46:22.565Z,11.50
2019-05-02T12:48:51.910Z,11.50
2019-05-02T12:51:22.565Z,11.50
2019-05-02T12:53:52.848Z,11.50
2019-05-02T12:56:22.918Z,11.60
2019-05-02T12:58:52.938Z,11.70
2019-05-02T13:01:23.056Z,11.70
2019-05-02T13:03:53.125Z,11.80
2019-05-02T13:06:22.082Z,11.80
2019-05-02T13:08:52.405Z,11.70
2019-05-02T13:11:28.205Z,11.70
2019-05-02T13:13:56.642Z,11.70
2019-05-02T13:16:25.082Z,11.70
2019-05-02T13:18:57.315Z,11.80
2019-05-02T13:21:43.037Z,11.80
2019-05-02T13:24:16.358Z,11.80
2019-05-02T13:26:43.897Z,11.70
2019-05-02T13:29:12.325Z,11.70
2019-05-02T13:31:42.809Z,11.70
2019-05-02T13:34:14.902Z,11.70
2019-05-02T13:36:47.205Z,11.60
2019-05-02T13:39:37.241Z,11.50
2019-05-02T13:42:06.481Z,11.60
2019-05-02T13:44:36.589Z,11.60
2019-05-02T13:47:07.527Z,11.60
2019-05-02T13:49:50.145Z,11.70
2019-05-02T13:52:07.654Z,11.80
2019-05-02T13:54:38.392Z,11.80
2019-05-02T13:57:06.831Z,11.90
2019-05-02T13:59:36.805Z,11.90
2019-05-02T14:02:07.573Z,11.90
2019-05-02T14:04:36.086Z,12.00
2019-05-02T14:07:07.571Z,12.20
2019-05-02T14:09:36.334Z,12.30
2019-05-02T14:12:13.151Z,12.40
2019-05-02T14:14:42.391Z,12.30
2019-05-02T14:17:11.718Z,12.20
2019-05-02T14:19:42.063Z,12.30
2019-05-02T14:22:10.483Z,12.30
2019-05-02T14:24:38.917Z,12.40
2019-05-02T14:27:12.859Z,12.40
2019-05-02T14:29:37.860Z,12.30
2019-05-02T14:32:20.322Z,12.60
2019-05-02T14:34:48.042Z,12.80
2019-05-02T14:37:16.479Z,12.70
2019-05-02T14:39:46.570Z,12.50
2019-05-02T14:42:21.290Z,12.50
2019-05-02T14:45:04.202Z,12.50
2019-05-02T14:47:19.567Z,12.50
2019-05-02T14:49:46.749Z,12.50
2019-05-02T14:52:15.331Z,12.70
2019-05-02T14:54:47.706Z,12.70
2019-05-02T14:57:17.124Z,12.80
2019-05-02T14:59:45.742Z,12.70
2019-05-02T15:02:16.352Z,12.60
2019-05-02T15:04:48.862Z,12.70
2019-05-02T15:07:17.663Z,12.80
2019-05-02T15:09:45.163Z,12.50
2019-05-02T15:12:18.597Z,12.70
2019-05-02T15:14:43.810Z,12.70
2019-05-02T15:17:12.253Z,12.80
2019-05-02T15:19:42.638Z,12.50
2019-05-02T15:22:12.440Z,12.50
2019-05-02T15:24:42.390Z,12.50
2019-05-02T15:27:17.028Z,12.50
2019-05-02T15:29:42.011Z,12.50
2019-05-02T15:32:28.646Z,12.40
2019-05-02T15:34:58.728Z,12.40
2019-05-02T15:37:27.969Z,12.40
2019-05-02T15:42:26.894Z,12.90
2019-05-02T15:44:57.000Z,12.90
2019-05-02T15:47:25.486Z,12.80
2019-05-02T15:49:55.977Z,12.70
2019-05-02T15:52:27.855Z,12.70
2019-05-02T15:55:00.106Z,12.40
2019-05-02T15:57:28.209Z,12.30
2019-05-02T15:59:56.631Z,12.20
2019-05-02T16:02:27.696Z,12.10
2019-05-02T16:05:02.325Z,11.80
2019-05-02T16:07:27.820Z,11.50
2019-05-02T16:10:01.184Z,11.20
2019-05-02T16:12:31.951Z,10.90
2019-05-02T16:14:57.962Z,10.80
2019-05-02T16:17:28.051Z,10.60
2019-05-02T16:20:04.590Z,10.30
2019-05-02T16:22:28.266Z,10.10
2019-05-02T16:24:56.872Z,9.80
2019-05-02T16:27:45.047Z,9.60
2019-05-02T16:30:16.687Z,9.60
2019-05-02T16:32:47.040Z,9.60
2019-05-02T16:35:17.637Z,10.10
2019-05-02T16:37:46.849Z,10.00
2019-05-02T16:40:22.143Z,9.50
2019-05-02T16:42:47.437Z,9.40
2019-05-02T16:45:16.502Z,9.30
2019-05-02T16:47:45.025Z,9.30
2019-05-02T16:50:14.546Z,9.10
2019-05-02T16:52:47.220Z,8.90
2019-05-02T16:55:21.006Z,8.70
2019-05-02T16:57:44.591Z,8.70
2019-05-02T17:00:16.383Z,8.50
2019-05-02T17:02:46.378Z,8.40
2019-05-02T17:05:15.818Z,8.50
2019-05-02T17:07:54.822Z,8.50
2019-05-02T17:10:24.891Z,8.60
2019-05-02T17:12:57.639Z,8.60
2019-05-02T17:15:26.351Z,8.60
2019-05-02T17:17:57.490Z,8.60
2019-05-02T17:20:25.918Z,9.00
2019-05-02T17:23:01.757Z,9.30
2019-05-02T17:25:24.497Z,9.30
2019-05-02T17:28:01.093Z,9.50
2019-05-02T17:30:23.545Z,9.60
2019-05-02T17:32:51.965Z,9.60
2019-05-02T17:35:22.107Z,9.40
2019-05-02T17:37:52.364Z,9.30
2019-05-02T17:40:22.438Z,9.30
2019-05-02T17:42:52.418Z,9.20
2019-05-02T17:45:23.925Z,9.40
2019-05-02T17:47:52.670Z,9.30
2019-05-02T17:50:29.337Z,9.00
2019-05-02T17:53:01.026Z,9.00
2019-05-02T17:55:34.553Z,8.90
2019-05-02T17:58:04.644Z,8.80
2019-05-02T18:00:33.367Z,8.90
2019-05-02T18:03:02.548Z,8.90
2019-05-02T18:05:35.474Z,8.90
2019-05-02T18:08:01.412Z,8.80
2019-05-02T18:10:29.908Z,8.70
2019-05-02T18:12:59.839Z,8.70
2019-05-02T18:15:29.843Z,8.70
2019-05-02T18:17:59.888Z,8.70
2019-05-02T18:20:28.934Z,8.80
2019-05-02T18:22:57.379Z,8.70
2019-05-02T18:25:25.845Z,8.70
2019-05-02T18:27:54.274Z,9.10
2019-05-02T18:30:26.851Z,8.90
2019-05-02T18:32:57.707Z,8.80
2019-05-02T18:35:23.405Z,8.80
2019-05-02T18:37:51.924Z,8.80
2019-05-02T18:40:27.869Z,8.70
2019-05-02T18:42:56.580Z,8.70
2019-05-02T18:45:28.583Z,8.60
2019-05-02T18:48:02.347Z,8.50
2019-05-02T18:50:32.036Z,8.60
2019-05-02T18:53:03.648Z,8.60
2019-05-02T18:55:32.414Z,8.60
2019-05-02T18:58:05.143Z,8.70
2019-05-02T19:00:36.121Z,8.60
2019-05-02T19:03:02.771Z,8.60
2019-05-02T19:05:32.511Z,8.60
2019-05-02T19:08:02.473Z,8.60
2019-05-02T19:10:32.457Z,8.60
2019-05-02T19:13:04.504Z,8.60
2019-05-02T19:15:34.769Z,8.60
2019-05-02T19:18:04.894Z,8.60
2019-05-02T19:20:57.572Z,8.60
2019-05-02T19:23:25.021Z,8.60
2019-05-02T19:25:53.438Z,8.60
2019-05-02T19:28:29.202Z,8.50
2019-05-02T19:31:03.078Z,8.50
2019-05-02T19:33:28.394Z,8.60
2019-05-02T19:35:57.044Z,8.60
2019-05-02T19:38:26.388Z,8.60
2019-05-02T19:40:58.199Z,8.60
2019-05-02T19:43:25.562Z,8.50
2019-05-02T19:45:54.162Z,8.50
2019-05-02T19:48:27.372Z,8.60
2019-05-02T19:50:53.495Z,8.60
2019-05-02T19:53:22.876Z,8.60
2019-05-02T19:55:52.115Z,8.50
2019-05-02T19:58:20.733Z,8.50
2019-05-02T20:00:49.166Z,8.50
2019-05-02T20:03:21.582Z,8.50
2019-05-02T20:05:48.482Z,8.60
2019-05-02T20:08:21.356Z,8.50
2019-05-02T20:10:49.380Z,8.40
2019-05-02T20:13:20.292Z,8.40
2019-05-02T20:16:05.659Z,8.50
2019-05-02T20:18:34.855Z,8.40
2019-05-02T20:21:04.065Z,8.40
2019-05-02T20:23:35.508Z,8.40
2019-05-02T20:26:03.010Z,8.40
2019-05-02T20:28:31.828Z,8.30
2019-05-02T20:31:01.765Z,8.40
2019-05-02T20:33:32.448Z,8.20
2019-05-02T20:36:01.850Z,8.10
2019-05-02T20:38:32.255Z,8.00
2019-05-02T20:41:00.501Z,8.10
2019-05-02T20:43:29.114Z,8.10
2019-05-02T20:45:57.547Z,8.10
2019-05-02T20:48:25.982Z,8.00
2019-05-02T20:50:54.754Z,7.90
2019-05-02T20:53:31.005Z,7.90
2019-05-02T20:55:53.518Z,7.90
2019-05-02T20:58:22.170Z,7.90
2019-05-02T21:01:05.095Z,7.90
2019-05-02T21:03:22.752Z,7.80
2019-05-02T21:06:02.991Z,7.80
2019-05-02T21:08:39.121Z,7.80
2019-05-02T21:11:07.934Z,7.70
2019-05-02T21:13:36.361Z,7.60
2019-05-02T21:16:05.062Z,7.60
2019-05-02T21:18:34.405Z,7.70
2019-05-02T21:21:02.829Z,7.70
2019-05-02T21:23:42.003Z,7.70
2019-05-02T21:26:01.882Z,7.70
2019-05-02T21:28:32.171Z,7.60
2019-05-02T21:31:02.931Z,7.70
2019-05-02T21:33:37.525Z,7.60
2019-05-02T21:36:06.406Z,7.60
2019-05-02T21:38:35.061Z,7.70
2019-05-02T21:41:05.710Z,7.50
2019-05-02T21:43:34.141Z,7.40
2019-05-02T21:46:02.590Z,7.40
2019-05-02T21:48:32.647Z,7.40
2019-05-02T21:51:12.111Z,7.40
2019-05-02T21:53:54.925Z,7.30
2019-05-02T21:56:21.773Z,7.30
2019-05-02T21:59:07.006Z,7.20
2019-05-02T22:01:42.212Z,7.20
2019-05-02T22:04:13.160Z,7.20
2019-05-02T22:06:42.766Z,7.20
2019-05-02T22:09:12.458Z,7.20
2019-05-02T22:11:42.906Z,7.10
2019-05-02T22:14:13.334Z,7.20
2019-05-02T22:16:42.526Z,7.90
2019-05-02T22:19:11.021Z,8.60
2019-05-02T22:21:39.475Z,9.30
2019-05-02T22:24:11.400Z,9.20
2019-05-02T22:26:38.124Z,8.30
2019-05-02T22:29:06.975Z,7.70
2019-05-02T22:31:35.415Z,7.50
2019-05-02T22:34:03.922Z,7.40
2019-05-02T22:36:32.885Z,7.30
2019-05-02T22:39:06.147Z,7.10
2019-05-02T22:41:35.030Z,7.10
2019-05-02T22:44:03.458Z,7.10
2019-05-02T22:46:43.195Z,7.00
2019-05-02T22:49:14.631Z,7.00
2019-05-02T22:51:44.117Z,6.90
2019-05-02T22:54:25.512Z,6.90
2019-05-02T22:56:43.396Z,6.90
2019-05-02T22:59:11.882Z,6.90
2019-05-02T23:01:42.170Z,6.80
2019-05-02T23:04:12.502Z,6.90
2019-05-02T23:06:43.906Z,6.90
2019-05-02T23:09:12.641Z,6.90
2019-05-02T23:11:42.602Z,6.80
2019-05-02T23:14:11.545Z,6.80
2019-05-02T23:16:42.387Z,6.70
2019-05-02T23:19:12.076Z,6.70
2019-05-02T23:21:42.278Z,6.70
2019-05-02T23:24:14.670Z,6.70
2019-05-02T23:26:53.161Z,6.60
2019-05-02T23:29:22.577Z,6.60
2019-05-02T23:31:51.783Z,6.60
2019-05-02T23:34:23.365Z,6.70
2019-05-02T23:36:52.208Z,6.70
2019-05-02T23:39:21.084Z,6.70
2019-05-02T23:41:49.587Z,6.80
2019-05-02T23:44:18.023Z,6.80
2019-05-02T23:46:46.442Z,6.70
2019-05-02T23:49:14.881Z,6.60
2019-05-02T23:51:43.310Z,6.60
2019-05-02T23:54:12.831Z,6.50
2019-05-02T23:56:43.143Z,6.50
2019-05-02T23:59:12.011Z,6.60
